Flight Track Log - Related Links

Times and Time Zones

All times are in EDT time to prevent confusion due to time zone crossing. See the CMP472 flight status page for this flight to view local times or setup timezone preferences in your user account.

Time Position Orientation Groundspeed Altitude Reporting Facility
EDT Latitude Longitude Course Direction KTS MPH feet Rate Location/Type
Fri 01:19:31 PM 9.0730 -79.3780 31° Northeast 186 214 500  Level FlightAware ADS-B
Fri 01:19:56 PM 9.0930 -79.3670 29° Northeast 190 219 1,700 2,509 Climbing FlightAware ADS-B
Fri 01:20:26 PM 9.1170 -79.3530 30° Northeast 188 216 2,800 1,855 Climbing FlightAware ADS-B
Fri 01:20:51 PM 9.1380 -79.3410 29° Northeast 210 242 3,400 1,309 Climbing FlightAware ADS-B
Fri 01:21:21 PM 9.1660 -79.3250 29° Northeast 242 278 4,000 1,418 Climbing FlightAware ADS-B
Fri 01:21:46 PM 9.1920 -79.3110 28° Northeast 273 314 4,700 840 Climbing FlightAware ADS-B
Fri 01:22:11 PM 9.2160 -79.2980 28° Northeast 273 314 4,700 2,743 Level FlightAware ADS-B
Fri 01:22:21 PM 9.2360 -79.3000 354° North 281 323 6,300 3,133 Climbing FlightAware ADS-B
Fri 01:23:41 PM 9.2930 -79.3820 305° West 299 344 9,400 2,200 Climbing FlightAware ADS-B
Fri 01:24:21 PM 9.3310 -79.4260 311° West 316 364 10,700 1,482 Climbing FlightAware ADS-B
Fri 01:25:06 PM 9.3780 -79.4790 312° West 358 412 11,500 1,553 Climbing FlightAware ADS-B
Fri 01:25:46 PM 9.4240 -79.5310 312° West 367 422 12,900 2,073 Climbing FlightAware ADS-B
Fri 01:26:01 PM 9.4330 -79.5550 291° West 369 425 13,400 1,964 Climbing FlightAware ADS-B
Fri 01:26:41 PM 9.4320 -79.6240 269° West 378 435 14,700 2,047 Climbing FlightAware ADS-B
Fri 01:27:26 PM 9.4290 -79.7040 268° West 382 440 16,300 2,047 Climbing FlightAware ADS-B
Fri 01:28:06 PM 9.4260 -79.7770 268° West 387 445 17,600 1,694 Climbing FlightAware ADS-B
Fri 01:28:51 PM 9.4240 -79.8590 269° West 396 456 18,700 1,412 Climbing FlightAware ADS-B
Fri 01:29:31 PM 9.4200 -79.9330 267° West 407 468 19,600 1,350 Climbing FlightAware ADS-B
Fri 01:30:11 PM 9.4280 -80.0110 276° West 416 479 20,500 1,200 Climbing FlightAware ADS-B
Fri 01:30:56 PM 9.4650 -80.0950 294° West 431 496 21,300 1,129 Climbing FlightAware ADS-B
Fri 01:31:36 PM 9.5020 -80.1670 298° West 441 507 22,100 706 Climbing FlightAware ADS-B
Fri 01:32:21 PM 9.5390 -80.2450 296° West 442 509 22,300 141 Climbing FlightAware ADS-B
Fri 01:33:01 PM 9.5700 -80.3090 296° West 442 509 22,300  Level FlightAware ADS-B
Fri 01:33:41 PM 9.6000 -80.3720 296° West 442 509 22,300  Level FlightAware ADS-B
Fri 01:34:21 PM 9.6310 -80.4350 297° West 442 509 22,300  Level FlightAware ADS-B
Fri 01:35:01 PM 9.6610 -80.4990 295° West 442 509 22,300  Level FlightAware ADS-B
Fri 01:35:41 PM 9.6920 -80.5620 297° West 442 509 22,300 191 Level FlightAware ADS-B
Fri 01:38:00 PM 9.9092 -80.7421 302° West  Level FlightAware Approximate
Fri 01:39:00 PM 9.9719 -80.8439 302° West  Level FlightAware Approximate
Fri 01:40:00 PM 10.0338 -80.9463 300° West  Level FlightAware Approximate
Fri 01:41:00 PM 10.0936 -81.0499 300° West  Level FlightAware Approximate
Fri 01:42:00 PM 10.1535 -81.1536 300° West  Level FlightAware Approximate
Fri 01:43:00 PM 10.2133 -81.2573 300° West  Level FlightAware Approximate
Fri 01:44:00 PM 10.2734 -81.3609 302° West  Level FlightAware Approximate
Fri 01:45:00 PM 10.3362 -81.4628 302° West  Level FlightAware Approximate
Fri 01:46:00 PM 10.3989 -81.5647 302° West  Level FlightAware Approximate
Fri 01:47:00 PM 10.4617 -81.6667 302° West  Level FlightAware Approximate
Fri 01:48:00 PM 10.5244 -81.7688 302° West  Level FlightAware Approximate
Fri 01:49:00 PM 10.5873 -81.8707 302° West  Level FlightAware Approximate
Fri 01:50:00 PM 10.6502 -81.9726 302° West  Level FlightAware Approximate
Fri 01:51:00 PM 10.7130 -82.0746 302° West  Level FlightAware Approximate
Fri 01:52:00 PM 10.7759 -82.1766 302° West  Level FlightAware Approximate
Fri 01:53:00 PM 10.8387 -82.2787 302° West  Level FlightAware Approximate
Fri 01:54:00 PM 10.9015 -82.3808 302° West  Level FlightAware Approximate
Fri 01:55:00 PM 10.9642 -82.4829 302° West  Level FlightAware Approximate
Fri 01:56:00 PM 11.0269 -82.5851 302° West  Level FlightAware Approximate
Fri 01:57:00 PM 11.0892 -82.6876 301° West  Level FlightAware Approximate
Fri 01:58:00 PM 11.1507 -82.7906 301° West  Level FlightAware Approximate
Fri 01:59:00 PM 11.2122 -82.8936 301° West  Level FlightAware Approximate
Fri 02:00:00 PM 11.2736 -82.9967 301° West  Level FlightAware Approximate
Fri 02:01:00 PM 11.3351 -83.0998 301° West  Level FlightAware Approximate
Fri 02:02:00 PM 11.3965 -83.2029 301° West  Level FlightAware Approximate
Fri 02:03:00 PM 11.4578 -83.3062 301° West  Level FlightAware Approximate
Fri 02:04:00 PM 11.5191 -83.4094 301° West  Level FlightAware Approximate
Fri 02:05:00 PM 11.5804 -83.5127 301° West  Level FlightAware Approximate
Fri 02:06:00 PM 11.6416 -83.6160 301° West  Level FlightAware Approximate
Fri 02:07:00 PM 11.7028 -83.7194 301° West  Level FlightAware Approximate
Fri 02:08:00 PM 11.7640 -83.8228 301° West  Level FlightAware Approximate
Fri 02:09:00 PM 11.8251 -83.9263 301° West  Level FlightAware Approximate
Fri 02:10:00 PM 11.8862 -84.0298 301° West  Level FlightAware Approximate
Fri 02:11:00 PM 11.9473 -84.1334 301° West  Level FlightAware Approximate
Fri 02:12:00 PM 12.0083 -84.2370 301° West  Level FlightAware Approximate
Fri 02:13:00 PM 12.0693 -84.3406 301° West  Level FlightAware Approximate
Fri 02:14:00 PM 12.1302 -84.4443 301° West  Level FlightAware Approximate
Fri 02:15:00 PM 12.1911 -84.5481 301° West  Level FlightAware Approximate
Fri 02:16:00 PM 12.2520 -84.6519 301° West  Level FlightAware Approximate
Fri 02:17:00 PM 12.3128 -84.7557 301° West  Level FlightAware Approximate
Fri 02:18:00 PM 12.3736 -84.8596 301° West  Level FlightAware Approximate
Fri 02:19:00 PM 12.4345 -84.9635 301° West  Level FlightAware Approximate
Fri 02:20:00 PM 12.4958 -85.0671 301° West  Level FlightAware Approximate
Fri 02:21:00 PM 12.5570 -85.1708 301° West  Level FlightAware Approximate
Fri 02:22:00 PM 12.6182 -85.2746 301° West  Level FlightAware Approximate
Fri 02:23:00 PM 12.6794 -85.3783 301° West  Level FlightAware Approximate
Fri 02:24:00 PM 12.7405 -85.4822 301° West  Level FlightAware Approximate
Fri 02:25:00 PM 12.8016 -85.5861 301° West  Level FlightAware Approximate
Fri 02:26:00 PM 12.8626 -85.6900 301° West  Level FlightAware Approximate
Fri 02:27:00 PM 12.9236 -85.7940 301° West  Level FlightAware Approximate
Fri 02:28:00 PM 12.9846 -85.8980 301° West  Level FlightAware Approximate
Fri 02:29:00 PM 13.0455 -86.0021 301° West  Level FlightAware Approximate
Fri 02:30:00 PM 13.1064 -86.1063 301° West  Level FlightAware Approximate
Fri 02:31:00 PM 13.1672 -86.2105 301° West  Level FlightAware Approximate
Fri 02:32:00 PM 13.2280 -86.3147 301° West  Level FlightAware Approximate
Fri 02:33:00 PM 13.2887 -86.4190 301° West  Level FlightAware Approximate
Fri 02:34:00 PM 13.3494 -86.5234 301° West  Level FlightAware Approximate
Fri 02:35:00 PM 13.4101 -86.6278 301° West  Level FlightAware Approximate
Fri 02:36:00 PM 13.4707 -86.7322 301° West  Level FlightAware Approximate
Fri 02:36:21 PM 13.6700 -87.3580 301° West 439 505 34,000  Level FlightAware ADS-B
Fri 02:37:00 PM 13.5313 -86.8367 301° West  Level FlightAware Approximate
Fri 02:38:00 PM 13.5918 -86.9413 301° West  Level FlightAware Approximate
Fri 02:38:51 PM 13.8350 -87.6260 302° West 437 503 34,000  Level FlightAware ADS-B
Fri 02:40:11 PM 13.9210 -87.7680 302° West 436 502 34,000  Level FlightAware ADS-B
Fri 02:40:46 PM 13.9600 -87.8310 303° West 436 502 34,000  Level FlightAware ADS-B
Fri 02:43:00 PM 14.1341 -88.0359 311° West  Level FlightAware Approximate
Fri 02:43:01 PM 14.1010 -88.0630 311° West 433 498 34,000  Level FlightAware ADS-B
Fri 02:43:41 PM 14.1440 -88.1340 302° West 432 497 34,000  Level FlightAware ADS-B
Fri 02:44:26 PM 14.1920 -88.2120 302° West 434 499 34,000  Level FlightAware ADS-B
Fri 02:45:06 PM 14.2350 -88.2840 302° West 434 499 34,000  Level FlightAware ADS-B
Fri 02:45:51 PM 14.2840 -88.3630 303° West 435 501 34,000  Level FlightAware ADS-B
Fri 02:46:31 PM 14.3260 -88.4340 301° West 435 501 34,000  Level FlightAware ADS-B
Fri 02:47:16 PM 14.3750 -88.5140 302° West 433 498 34,000  Level FlightAware ADS-B
Fri 02:47:56 PM 14.4170 -88.5840 302° West 434 499 34,000  Level FlightAware ADS-B
Fri 02:48:46 PM 14.4680 -88.6720 301° West 435 501 34,000  Level FlightAware ADS-B
Fri 02:49:36 PM 14.5110 -88.7490 300° West 435 501 34,000  Level FlightAware ADS-B
Fri 02:50:16 PM 14.5680 -88.8330 305° West 438 504 34,000  Level FlightAware ADS-B
Fri 02:50:56 PM 14.6110 -88.9060 301° West 438 504 34,000  Level FlightAware ADS-B
Fri 02:51:41 PM 14.6590 -88.9850 302° West 438 504 34,000  Level FlightAware ADS-B
Fri 02:52:21 PM 14.7020 -89.0560 302° West 437 503 34,000  Level FlightAware ADS-B
Fri 02:53:01 PM 14.7460 -89.1290 302° West 437 503 34,000  Level FlightAware ADS-B
Fri 02:53:46 PM 14.7940 -89.2090 302° West 436 502 34,000  Level FlightAware ADS-B
Fri 02:54:26 PM 14.8370 -89.2810 302° West 438 504 34,000  Level FlightAware ADS-B
Fri 02:55:11 PM 14.8850 -89.3620 302° West 438 504 34,000  Level FlightAware ADS-B
Fri 02:55:46 PM 14.9230 -89.4260 302° West 438 504 34,000  Level FlightAware ADS-B
Fri 02:56:36 PM 14.9760 -89.5140 302° West 438 504 34,000 133 Level FlightAware ADS-B
Fri 02:57:16 PM 15.0190 -89.5850 302° West 434 499 34,200 776 Climbing FlightAware ADS-B
Fri 02:58:01 PM 15.0660 -89.6650 301° West 426 490 35,100 988 Climbing FlightAware ADS-B
Fri 02:58:41 PM 15.1070 -89.7330 302° West 426 490 35,600 675 Climbing FlightAware ADS-B
Fri 02:59:21 PM 15.1490 -89.8050 301° West 430 495 36,000 282 Climbing FlightAware ADS-B
Fri 03:00:06 PM 15.1960 -89.8830 302° West 432 497 36,000  Level FlightAware ADS-B
Fri 03:00:46 PM 15.2370 -89.9530 301° West 431 496 36,000  Level FlightAware ADS-B
Fri 03:01:31 PM 15.2850 -90.0330 302° West 430 495 36,000  Level FlightAware ADS-B
Fri 03:02:11 PM 15.3260 -90.1020 302° West 430 495 36,000  Level FlightAware ADS-B
Fri 03:02:51 PM 15.3680 -90.1740 301° West 424 488 36,000  Level FlightAware ADS-B
Fri 03:03:36 PM 15.4140 -90.2520 301° West 421 484 36,000  Level FlightAware ADS-B
Fri 03:04:16 PM 15.4530 -90.3180 302° West 420 483 36,000  Level FlightAware ADS-B
Fri 03:05:01 PM 15.5020 -90.4010 302° West 418 481 36,000  Level FlightAware ADS-B
Fri 03:05:36 PM 15.5350 -90.4570 301° West 418 481 36,000  Level FlightAware ADS-B
Fri 03:06:21 PM 15.5820 -90.5370 301° West 415 478 36,000  Level FlightAware ADS-B
Fri 03:07:01 PM 15.6220 -90.6060 301° West 415 478 36,000  Level FlightAware ADS-B
Fri 03:07:41 PM 15.6540 -90.6650 299° West 415 478 36,000  Level FlightAware ADS-B
Fri 03:08:31 PM 15.6950 -90.7380 300° West 415 478 36,000  Level FlightAware ADS-B
Fri 03:09:11 PM 15.7490 -90.8230 303° West 415 478 36,000  Level FlightAware ADS-B
Fri 03:09:51 PM 15.7820 -90.8820 300° West 415 478 36,000  Level FlightAware ADS-B
Fri 03:10:31 PM 15.8140 -90.9400 300° West 415 478 36,000  Level FlightAware ADS-B
Fri 03:11:11 PM 15.8470 -90.9990 300° West 415 478 36,000  Level FlightAware ADS-B
Fri 03:11:51 PM 15.8800 -91.0580 300° West 415 478 36,000  Level FlightAware ADS-B
Fri 03:12:41 PM 15.9200 -91.1310 300° West 415 478 36,000  Level FlightAware ADS-B
Fri 03:13:21 PM 15.9530 -91.1900 300° West 415 478 36,000  Level FlightAware ADS-B
Fri 03:14:01 PM 15.9860 -91.2490 300° West 415 478 36,000  Level FlightAware ADS-B
Fri 03:14:41 PM 16.0180 -91.3080 299° West 415 478 36,000  Level FlightAware ADS-B
Fri 03:15:31 PM 16.0590 -91.3810 300° West 415 478 36,000  Level FlightAware ADS-B
Fri 03:16:11 PM 16.0920 -91.4400 300° West 415 478 36,000  Level FlightAware ADS-B
Fri 03:16:51 PM 16.1240 -91.4990 299° West 415 478 36,000  Level FlightAware ADS-B
Fri 03:17:31 PM 16.1570 -91.5580 300° West 415 478 36,000  Level FlightAware ADS-B
Fri 03:18:11 PM 16.1900 -91.6170 300° West 415 478 36,000 12 Level FlightAware ADS-B
Fri 03:20:00 PM 16.3300 -91.7868 311° West  Level FlightAware Approximate
Fri 03:21:00 PM 16.4070 -91.8804 311° West  Level FlightAware Approximate
Fri 03:22:00 PM 16.4840 -91.9741 311° West  Level FlightAware Approximate
Fri 03:23:00 PM 16.5609 -92.0679 311° West  Level FlightAware Approximate
Fri 03:24:00 PM 16.6378 -92.1617 311° West  Level FlightAware Approximate
Fri 03:25:00 PM 16.7146 -92.2556 311° West  Level FlightAware Approximate
Fri 03:26:00 PM 16.7915 -92.3496 310° West  Level FlightAware Approximate
Fri 03:27:00 PM 16.8682 -92.4436 310° West  Level FlightAware Approximate
Fri 03:28:00 PM 16.9449 -92.5377 310° West  Level FlightAware Approximate
Fri 03:29:00 PM 17.0216 -92.6319 310° West  Level FlightAware Approximate
Fri 03:30:00 PM 17.0982 -92.7262 310° West  Level FlightAware Approximate
Fri 03:31:00 PM 17.1748 -92.8206 310° West  Level FlightAware Approximate
Fri 03:32:00 PM 17.2514 -92.9150 310° West  Level FlightAware Approximate
Fri 03:33:00 PM 17.3279 -93.0095 310° West  Level FlightAware Approximate
Fri 03:34:00 PM 17.4043 -93.1041 310° West  Level FlightAware Approximate
Fri 03:35:00 PM 17.4807 -93.1988 310° West  Level FlightAware Approximate
Fri 03:36:00 PM 17.5571 -93.2935 310° West  Level FlightAware Approximate
Fri 03:37:00 PM 17.6334 -93.3884 310° West  Level FlightAware Approximate
Fri 03:38:00 PM 17.7097 -93.4833 310° West  Level FlightAware Approximate
Fri 03:39:00 PM 17.7859 -93.5783 310° West  Level FlightAware Approximate
Fri 03:40:00 PM 17.8621 -93.6733 310° West  Level FlightAware Approximate
Fri 03:41:00 PM 17.9382 -93.7685 310° West  Level FlightAware Approximate
Fri 03:42:00 PM 18.0143 -93.8637 310° West  Level FlightAware Approximate
Fri 03:43:00 PM 18.0888 -93.9604 309° West  Level FlightAware Approximate
Fri 03:44:00 PM 18.1632 -94.0571 309° West  Level FlightAware Approximate
Fri 03:45:00 PM 18.2376 -94.1540 309° West  Level FlightAware Approximate
Fri 03:46:00 PM 18.3119 -94.2509 309° West  Level FlightAware Approximate
Fri 03:47:00 PM 18.3862 -94.3479 309° West  Level FlightAware Approximate
Fri 03:48:00 PM 18.4604 -94.4450 309° West  Level FlightAware Approximate
Fri 03:49:00 PM 18.5346 -94.5422 309° West  Level FlightAware Approximate
Fri 03:50:00 PM 18.6087 -94.6395 309° West  Level FlightAware Approximate
Fri 03:51:00 PM 18.6828 -94.7368 309° West  Level FlightAware Approximate
Fri 03:52:00 PM 18.7568 -94.8343 309° West  Level FlightAware Approximate
Fri 03:53:00 PM 18.8308 -94.9318 309° West  Level FlightAware Approximate
Fri 03:54:00 PM 18.9047 -95.0294 309° West  Level FlightAware Approximate
Fri 03:55:00 PM 18.9786 -95.1271 309° West  Level FlightAware Approximate
Fri 03:56:00 PM 19.0513 -95.2258 308° West  Level FlightAware Approximate
Fri 03:57:00 PM 19.1239 -95.3247 308° West  Level FlightAware Approximate
Fri 03:58:00 PM 19.1964 -95.4236 308° West  Level FlightAware Approximate
Fri 03:59:00 PM 19.2689 -95.5226 308° West  Level FlightAware Approximate
Fri 04:00:00 PM 19.3413 -95.6218 308° West  Level FlightAware Approximate
Fri 04:01:00 PM 19.4137 -95.7210 308° West  Level FlightAware Approximate
Fri 04:02:00 PM 19.4860 -95.8202 309° West  Level FlightAware Approximate
Fri 04:03:00 PM 19.5603 -95.9179 309° West  Level FlightAware Approximate
Fri 04:04:00 PM 19.6345 -96.0157 309° West  Level FlightAware Approximate
Fri 04:05:00 PM 19.7086 -96.1136 309° West  Level FlightAware Approximate
Fri 04:06:00 PM 19.7827 -96.2116 309° West  Level FlightAware Approximate
Fri 04:07:00 PM 19.8567 -96.3097 309° West  Level FlightAware Approximate
Fri 04:08:00 PM 19.9307 -96.4079 309° West  Level FlightAware Approximate
Fri 04:09:00 PM 20.0047 -96.5062 309° West  Level FlightAware Approximate
Fri 04:10:00 PM 20.0785 -96.6046 309° West  Level FlightAware Approximate
Fri 04:11:00 PM 20.1523 -96.7030 309° West  Level FlightAware Approximate
Fri 04:12:00 PM 20.2283 -96.7996 312° West  Level FlightAware Approximate
Fri 04:13:00 PM 20.3081 -96.8926 313° West  Level FlightAware Approximate
Fri 04:14:00 PM 20.3888 -96.9849 313° West  Level FlightAware Approximate
Fri 04:15:00 PM 20.4694 -97.0773 313° West  Level FlightAware Approximate
Fri 04:16:00 PM 20.5500 -97.1698 313° West  Level FlightAware Approximate
Fri 04:17:00 PM 20.6305 -97.2624 313° West  Level FlightAware Approximate
Fri 04:18:00 PM 20.7110 -97.3550 313° West  Level FlightAware Approximate
Fri 04:19:00 PM 20.7914 -97.4478 313° West  Level FlightAware Approximate
Fri 04:20:00 PM 20.8718 -97.5407 313° West  Level FlightAware Approximate
Fri 04:21:00 PM 20.9521 -97.6337 313° West  Level FlightAware Approximate
Fri 04:22:00 PM 21.0324 -97.7268 313° West  Level FlightAware Approximate
Fri 04:23:00 PM 21.1126 -97.8199 313° West  Level FlightAware Approximate
Fri 04:24:00 PM 21.1928 -97.9132 313° West  Level FlightAware Approximate
Fri 04:25:00 PM 21.2729 -98.0066 313° West  Level FlightAware Approximate
Fri 04:26:00 PM 21.3530 -98.1001 313° West  Level FlightAware Approximate
Fri 04:27:00 PM 21.4330 -98.1937 313° West  Level FlightAware Approximate
Fri 04:28:00 PM 21.5130 -98.2874 313° West  Level FlightAware Approximate
Fri 04:29:00 PM 21.5929 -98.3811 313° West  Level FlightAware Approximate
Fri 04:30:00 PM 21.6728 -98.4750 312° West  Level FlightAware Approximate
Fri 04:31:00 PM 21.7526 -98.5690 312° West  Level FlightAware Approximate
Fri 04:32:00 PM 21.8323 -98.6631 312° West  Level FlightAware Approximate
Fri 04:33:00 PM 21.9120 -98.7573 312° West  Level FlightAware Approximate
Fri 04:34:00 PM 21.9917 -98.8517 312° West  Level FlightAware Approximate
Fri 04:35:00 PM 22.0713 -98.9461 312° West  Level FlightAware Approximate
Fri 04:36:00 PM 22.1509 -99.0405 312° West  Level FlightAware Approximate
Fri 04:37:00 PM 22.2307 -99.1349 312° West  Level FlightAware Approximate
Fri 04:38:00 PM 22.3104 -99.2294 312° West  Level FlightAware Approximate
Fri 04:39:00 PM 22.3900 -99.3240 312° West  Level FlightAware Approximate
Fri 04:40:00 PM 22.4695 -99.4187 312° West  Level FlightAware Approximate
Fri 04:41:00 PM 22.5491 -99.5135 312° West  Level FlightAware Approximate
Fri 04:42:00 PM 22.6285 -99.6085 312° West  Level FlightAware Approximate
Fri 04:43:00 PM 22.7079 -99.7035 312° West  Level FlightAware Approximate
Fri 04:44:00 PM 22.7873 -99.7986 312° West  Level FlightAware Approximate
Fri 04:45:00 PM 22.8666 -99.8939 312° West  Level FlightAware Approximate
Fri 04:46:00 PM 22.9458 -99.9893 312° West  Level FlightAware Approximate
Fri 04:47:00 PM 23.0250 -100.0847 312° West  Level FlightAware Approximate
Fri 04:48:00 PM 23.1041 -100.1804 312° West  Level FlightAware Approximate
Fri 04:49:00 PM 23.1832 -100.2761 312° West  Level FlightAware Approximate
Fri 04:50:00 PM 23.2611 -100.3728 311° West  Level FlightAware Approximate
Fri 04:51:00 PM 23.3383 -100.4705 311° West  Level FlightAware Approximate
Fri 04:52:00 PM 23.4154 -100.5682 311° West  Level FlightAware Approximate
Fri 04:53:00 PM 23.4948 -100.6636 313° West  Level FlightAware Approximate
Fri 04:54:00 PM 23.5749 -100.7586 313° West  Level FlightAware Approximate
Fri 04:55:00 PM 23.6549 -100.8538 313° West  Level FlightAware Approximate
Fri 04:56:00 PM 23.7348 -100.9490 313° West  Level FlightAware Approximate
Fri 04:57:00 PM 23.8147 -101.0443 312° West  Level FlightAware Approximate
Fri 04:58:00 PM 23.8946 -101.1398 312° West  Level FlightAware Approximate
Fri 04:59:00 PM 23.9743 -101.2354 312° West  Level FlightAware Approximate
Fri 05:00:00 PM 24.0540 -101.3311 312° West  Level FlightAware Approximate
Fri 05:01:00 PM 24.1337 -101.4269 312° West  Level FlightAware Approximate
Fri 05:02:00 PM 24.2075 -101.5280 306° West  Level FlightAware Approximate
Fri 05:03:00 PM 24.2773 -101.6328 306° West  Level FlightAware Approximate
Fri 05:04:00 PM 24.3470 -101.7377 306° West  Level FlightAware Approximate
Fri 05:05:00 PM 24.4166 -101.8427 306° West  Level FlightAware Approximate
Fri 05:06:00 PM 24.4861 -101.9479 306° West  Level FlightAware Approximate
Fri 05:07:00 PM 24.5556 -102.0531 306° West  Level FlightAware Approximate
Fri 05:08:00 PM 24.6249 -102.1585 306° West  Level FlightAware Approximate
Fri 05:09:00 PM 24.6943 -102.2640 306° West  Level FlightAware Approximate
Fri 05:10:00 PM 24.7635 -102.3696 306° West  Level FlightAware Approximate
Fri 05:11:00 PM 24.8326 -102.4753 306° West  Level FlightAware Approximate
Fri 05:12:00 PM 24.9017 -102.5812 306° West  Level FlightAware Approximate
Fri 05:13:00 PM 24.9708 -102.6872 306° West  Level FlightAware Approximate
Fri 05:14:00 PM 25.0397 -102.7933 306° West  Level FlightAware Approximate
Fri 05:15:00 PM 25.1085 -102.8995 306° West  Level FlightAware Approximate
Fri 05:16:00 PM 25.1773 -103.0058 306° West  Level FlightAware Approximate
Fri 05:17:00 PM 25.2464 -103.1119 306° West  Level FlightAware Approximate
Fri 05:18:00 PM 25.3159 -103.2178 306° West  Level FlightAware Approximate
Fri 05:19:00 PM 25.3853 -103.3239 306° West  Level FlightAware Approximate
Fri 05:20:00 PM 25.4546 -103.4300 306° West  Level FlightAware Approximate
Fri 05:21:00 PM 25.5238 -103.5363 306° West  Level FlightAware Approximate
Fri 05:22:00 PM 25.5930 -103.6427 306° West  Level FlightAware Approximate
Fri 05:23:00 PM 25.6621 -103.7492 306° West  Level FlightAware Approximate
Fri 05:24:00 PM 25.7311 -103.8559 306° West  Level FlightAware Approximate
Fri 05:25:00 PM 25.8000 -103.9626 306° West  Level FlightAware Approximate
Fri 05:26:00 PM 25.8688 -104.0695 306° West  Level FlightAware Approximate
Fri 05:27:00 PM 25.9376 -104.1765 306° West  Level FlightAware Approximate
Fri 05:28:00 PM 26.0063 -104.2837 306° West  Level FlightAware Approximate
Fri 05:29:00 PM 26.0749 -104.3909 305° West  Level FlightAware Approximate
Fri 05:30:00 PM 26.1434 -104.4983 305° West  Level FlightAware Approximate
Fri 05:31:00 PM 26.2119 -104.6058 305° West  Level FlightAware Approximate
Fri 05:32:00 PM 26.2803 -104.7135 305° West  Level FlightAware Approximate
Fri 05:33:00 PM 26.3486 -104.8212 305° West  Level FlightAware Approximate
Fri 05:34:00 PM 26.4168 -104.9291 305° West  Level FlightAware Approximate
Fri 05:35:00 PM 26.4849 -105.0371 305° West  Level FlightAware Approximate
Fri 05:36:00 PM 26.5529 -105.1453 305° West  Level FlightAware Approximate
Fri 05:37:00 PM 26.6209 -105.2536 305° West  Level FlightAware Approximate
Fri 05:38:00 PM 26.6888 -105.3620 305° West  Level FlightAware Approximate
Fri 05:39:00 PM 26.7566 -105.4705 305° West  Level FlightAware Approximate
Fri 05:40:00 PM 26.8243 -105.5792 305° West  Level FlightAware Approximate
Fri 05:41:00 PM 26.8920 -105.6880 305° West  Level FlightAware Approximate
Fri 05:42:00 PM 26.9595 -105.7969 305° West  Level FlightAware Approximate
Fri 05:43:00 PM 27.0270 -105.9060 305° West  Level FlightAware Approximate
Fri 05:44:00 PM 27.0944 -106.0152 305° West  Level FlightAware Approximate
Fri 05:45:00 PM 27.1617 -106.1245 305° West  Level FlightAware Approximate
Fri 05:46:00 PM 27.2289 -106.2339 305° West  Level FlightAware Approximate
Fri 05:47:00 PM 27.2960 -106.3435 305° West  Level FlightAware Approximate
Fri 05:48:00 PM 27.3631 -106.4532 305° West  Level FlightAware Approximate
Fri 05:49:00 PM 27.4300 -106.5631 304° West  Level FlightAware Approximate
Fri 05:50:00 PM 27.4969 -106.6731 304° West  Level FlightAware Approximate
Fri 05:51:00 PM 27.5637 -106.7832 304° West  Level FlightAware Approximate
Fri 05:52:00 PM 27.6304 -106.8934 304° West  Level FlightAware Approximate
Fri 05:53:00 PM 27.6970 -107.0038 304° West  Level FlightAware Approximate
Fri 05:54:00 PM 27.7636 -107.1143 304° West  Level FlightAware Approximate
Fri 05:55:00 PM 27.8300 -107.2250 304° West  Level FlightAware Approximate
Fri 05:56:00 PM 27.8964 -107.3358 304° West  Level FlightAware Approximate
Fri 05:57:00 PM 27.9626 -107.4467 304° West  Level FlightAware Approximate
Fri 05:58:00 PM 28.0288 -107.5578 304° West  Level FlightAware Approximate
Fri 05:59:00 PM 28.0949 -107.6690 304° West  Level FlightAware Approximate
Fri 06:00:00 PM 28.1609 -107.7803 304° West  Level FlightAware Approximate
Fri 06:01:00 PM 28.2268 -107.8918 304° West  Level FlightAware Approximate
Fri 06:02:00 PM 28.2926 -108.0034 304° West  Level FlightAware Approximate
Fri 06:03:00 PM 28.3583 -108.1152 304° West  Level FlightAware Approximate
Fri 06:04:00 PM 28.4239 -108.2270 304° West  Level FlightAware Approximate
Fri 06:05:00 PM 28.4895 -108.3391 304° West  Level FlightAware Approximate
Fri 06:05:16 PM 27.2630 -106.1870 304° West 393 452 38,000  Level FlightAware ADS-B
Fri 06:06:00 PM 28.5549 -108.4512 304° West  Level FlightAware Approximate
Fri 06:06:01 PM 27.3050 -106.2570 304° West 393 452 38,000  Level FlightAware ADS-B
Fri 06:06:41 PM 27.3390 -106.3140 304° West 393 452 38,000  Level FlightAware ADS-B
Fri 06:07:06 PM 27.3780 -106.3700 308° West 396 456 38,000  Level FlightAware ADS-B
Fri 06:07:51 PM 27.4190 -106.4380 304° West 396 456 38,000  Level FlightAware ADS-B
Fri 06:08:26 PM 27.4640 -106.5100 305° West 407 468 38,000  Level FlightAware ADS-B
Fri 06:09:11 PM 27.5120 -106.5850 306° West 405 466 38,000  Level FlightAware ADS-B
Fri 06:09:46 PM 27.5450 -106.6420 303° West 405 466 38,000  Level FlightAware ADS-B
Fri 06:10:26 PM 27.5810 -106.7020 304° West 405 466 38,000  Level FlightAware ADS-B
Fri 06:11:16 PM 27.6250 -106.7760 304° West 405 466 38,000  Level FlightAware ADS-B
Fri 06:11:56 PM 27.6610 -106.8360 304° West 405 466 38,000  Level FlightAware ADS-B
Fri 06:12:36 PM 27.6970 -106.8950 305° West 405 466 38,000  Level FlightAware ADS-B
Fri 06:13:16 PM 27.7320 -106.9550 303° West 405 466 38,000  Level FlightAware ADS-B
Fri 06:13:56 PM 27.7680 -107.0150 304° West 405 466 38,000  Level FlightAware ADS-B
Fri 06:14:46 PM 27.8120 -107.0890 304° West 405 466 38,000  Level FlightAware ADS-B
Fri 06:15:26 PM 27.8480 -107.1490 304° West 405 466 38,000  Level FlightAware ADS-B
Fri 06:16:06 PM 27.8840 -107.2090 304° West 405 466 38,000  Level FlightAware ADS-B
Fri 06:16:46 PM 27.9190 -107.2690 303° West 405 466 38,000  Level FlightAware ADS-B
Fri 06:17:26 PM 27.9550 -107.3280 305° West 405 466 38,000  Level FlightAware ADS-B
Fri 06:18:16 PM 27.9990 -107.4030 304° West 405 466 38,000  Level FlightAware ADS-B
Fri 06:18:56 PM 28.0350 -107.4630 304° West 405 466 38,000  Level FlightAware ADS-B
Fri 06:21:00 PM 28.1748 -107.6904 305° West  Level Estimated
Fri 06:22:00 PM 28.2423 -107.8006 305° West  Level Estimated
Fri 06:23:00 PM 28.3098 -107.9110 305° West  Level Estimated
Fri 06:24:00 PM 28.3771 -108.0215 305° West  Level Estimated
Fri 06:25:00 PM 28.4443 -108.1322 305° West  Level Estimated
Fri 06:26:00 PM 28.5115 -108.2430 305° West  Level Estimated
Fri 06:27:00 PM 28.5786 -108.3539 305° West  Level Estimated
Fri 06:28:00 PM 28.6456 -108.4650 305° West  Level Estimated
Fri 06:29:00 PM 28.7125 -108.5762 304° West  Level Estimated
Fri 06:30:00 PM 28.7792 -108.6876 304° West  Level Estimated
Fri 06:31:00 PM 28.8460 -108.7991 304° West  Level Estimated
Fri 06:32:00 PM 28.9126 -108.9108 304° West  Level Estimated
Fri 06:33:00 PM 28.9791 -109.0226 304° West  Level Estimated
Fri 06:34:00 PM 29.0455 -109.1345 304° West  Level Estimated
Fri 06:35:00 PM 29.1119 -109.2466 304° West  Level Estimated
Fri 06:36:00 PM 29.1781 -109.3588 304° West  Level Estimated
Fri 06:37:00 PM 29.2442 -109.4712 304° West  Level Estimated
Fri 06:38:00 PM 29.3103 -109.5837 304° West  Level Estimated
Fri 06:39:00 PM 29.3763 -109.6964 304° West  Level Estimated
Fri 06:40:00 PM 29.4421 -109.8092 304° West  Level Estimated
Fri 06:41:00 PM 29.5079 -109.9221 304° West  Level Estimated
Fri 06:42:00 PM 29.5736 -110.0352 304° West  Level Estimated
Fri 06:43:00 PM 29.6392 -110.1485 304° West  Level Estimated
Fri 06:44:00 PM 29.7047 -110.2619 304° West  Level Estimated
Fri 06:45:00 PM 29.7700 -110.3754 304° West  Level Estimated
Fri 06:46:00 PM 29.8353 -110.4891 304° West  Level Estimated
Fri 06:46:51 PM 29.8940 -110.6030 304° West 418 481 38,000  Level FlightAware ADS-B
Fri 06:47:31 PM 29.9360 -110.6780 303° West 418 481 38,000  Level FlightAware ADS-B
Fri 06:48:16 PM 29.9840 -110.7640 303° West 419 482 38,000  Level FlightAware ADS-B
Fri 06:48:56 PM 30.0260 -110.8380 303° West 418 481 38,000  Level FlightAware ADS-B
Fri 06:49:36 PM 30.0680 -110.9130 303° West 417 480 38,000  Level FlightAware ADS-B
Fri 06:50:21 PM 30.1150 -110.9970 303° West 416 479 38,000  Level FlightAware ADS-B
Fri 06:51:01 PM 30.1550 -111.0690 303° West 416 479 38,000  Level FlightAware ADS-B
Fri 06:51:41 PM 30.1970 -111.1450 303° West 416 479 38,000  Level FlightAware ADS-B
Fri 06:52:11 PM 30.2290 -111.2010 303° West 415 478 38,000  Level FlightAware ADS-B
Fri 06:52:56 PM 30.2770 -111.2870 303° West 414 476 38,000  Level FlightAware ADS-B
Fri 06:53:36 PM 30.3180 -111.3620 302° West 414 476 38,000  Level FlightAware ADS-B
Fri 06:54:16 PM 30.3580 -111.4350 302° West 413 475 38,000  Level FlightAware ADS-B
Fri 06:55:01 PM 30.4040 -111.5170 303° West 413 475 38,000  Level FlightAware ADS-B
Fri 06:55:41 PM 30.4460 -111.5920 303° West 414 476 38,000  Level FlightAware ADS-B
Fri 06:56:21 PM 30.4830 -111.6600 302° West 415 478 38,000  Level FlightAware ADS-B
Fri 06:57:06 PM 30.5240 -111.7370 302° West 415 478 38,000  Level FlightAware ADS-B
Fri 06:57:46 PM 30.5590 -111.8010 302° West 415 478 38,000  Level FlightAware ADS-B
Fri 06:58:31 PM 30.6210 -111.9120 303° West 420 483 38,000  Level FlightAware ADS-B
Fri 06:59:11 PM 30.6630 -111.9880 303° West 421 484 38,000  Level FlightAware ADS-B
Fri 06:59:51 PM 30.7040 -112.0640 302° West 420 483 38,000  Level FlightAware ADS-B
Fri 07:00:36 PM 30.7520 -112.1520 302° West 420 483 38,000  Level FlightAware ADS-B
Fri 07:01:16 PM 30.7930 -112.2280 302° West 421 484 38,000  Level FlightAware ADS-B
Fri 07:02:01 PM 30.8360 -112.3070 302° West 420 483 38,000  Level FlightAware ADS-B
Fri 07:02:41 PM 30.8740 -112.3780 302° West 420 483 38,000  Level FlightAware ADS-B
Fri 07:03:31 PM 30.9230 -112.4700 302° West 414 476 38,000  Level FlightAware ADS-B
Fri 07:04:21 PM 30.9650 -112.5520 301° West 414 476 38,000  Level FlightAware ADS-B
Fri 07:05:01 PM 31.0220 -112.6520 304° West 412 474 38,000  Level FlightAware ADS-B
Fri 07:05:46 PM 31.0660 -112.7350 302° West 412 474 38,000  Level FlightAware ADS-B
Fri 07:06:26 PM 31.1080 -112.8140 302° West 411 473 38,000  Level FlightAware ADS-B
Fri 07:07:06 PM 31.1480 -112.8890 302° West 413 475 38,000  Level FlightAware ADS-B
Fri 07:07:46 PM 31.1920 -112.9720 302° West 413 475 38,000  Level FlightAware ADS-B
Fri 07:08:41 PM 31.2440 -113.0680 302° West 413 475 38,000  Level FlightAware ADS-B
Fri 07:09:26 PM 31.2840 -113.1480 300° West 414 476 38,000  Level FlightAware ADS-B
Fri 07:10:21 PM 31.3420 -113.2580 302° West 416 479 38,000  Level FlightAware ADS-B
Fri 07:11:06 PM 31.3920 -113.3500 303° West 422 486 38,000  Level FlightAware ADS-B
Fri 07:11:46 PM 31.4260 -113.4160 301° West 422 486 38,000  Level FlightAware ADS-B
Fri 07:12:26 PM 31.4600 -113.4830 301° West 422 486 38,000  Level FlightAware ADS-B
Fri 07:13:06 PM 31.4940 -113.5500 301° West 422 486 38,000  Level FlightAware ADS-B
Fri 07:13:46 PM 31.5280 -113.6160 301° West 422 486 38,000  Level FlightAware ADS-B
Fri 07:14:36 PM 31.5710 -113.7000 301° West 422 486 38,000  Level FlightAware ADS-B
Fri 07:15:16 PM 31.6050 -113.7670 301° West 422 486 38,000  Level FlightAware ADS-B
Fri 07:15:56 PM 31.6390 -113.8330 301° West 422 486 38,000  Level FlightAware ADS-B
Fri 07:16:36 PM 31.6740 -113.9000 302° West 422 486 38,000  Level FlightAware ADS-B
Fri 07:17:26 PM 31.7160 -113.9840 300° West 422 486 38,000  Level FlightAware ADS-B
Fri 07:18:06 PM 31.7500 -114.0510 301° West 422 486 38,000  Level FlightAware ADS-B
Fri 07:18:46 PM 31.7850 -114.1180 302° West 422 486 38,000  Level FlightAware ADS-B
Fri 07:19:26 PM 31.8190 -114.1850 301° West 422 486 38,000  Level FlightAware ADS-B
Fri 07:20:06 PM 31.8530 -114.2520 301° West 422 486 38,000  Level FlightAware ADS-B
Fri 07:22:00 PM 31.9758 -114.4738 303° West  Level FlightAware Approximate
Fri 07:23:00 PM 32.0403 -114.5907 303° West  Level FlightAware Approximate
Fri 07:24:00 PM 32.1047 -114.7078 303° West  Level FlightAware Approximate
Fri 07:25:00 PM 32.1690 -114.8251 303° West  Level FlightAware Approximate
Fri 07:26:00 PM 32.2332 -114.9426 303° West  Level FlightAware Approximate
Fri 07:27:00 PM 32.2972 -115.0602 303° West  Level FlightAware Approximate
Fri 07:28:00 PM 32.3612 -115.1780 303° West  Level FlightAware Approximate
Fri 07:28:31 PM 32.4661 -115.3058 304° West 416 479 38,000  Level Los Angeles Center
Fri 07:29:00 PM 32.4250 -115.2959 303° West  Level FlightAware Approximate
Fri 07:29:34 PM 32.5408 -115.4450 303° West 418 481 37,900  Level Los Angeles Center
Fri 07:30:00 PM 32.4888 -115.4141 303° West  Level FlightAware Approximate
Fri 07:31:00 PM 32.5524 -115.5323 303° West  Level FlightAware Approximate
Fri 07:32:00 PM 32.6159 -115.6508 303° West  Level FlightAware Approximate
Fri 07:33:00 PM 32.6811 -115.7690 304° West  Level FlightAware Approximate
Fri 07:35:21 PM 32.9040 -116.1310 303° West 403 464 35,100  Level FlightAware ADS-B
Fri 07:36:06 PM 32.9470 -116.2120 302° West 409 471 32,800 -3,176 Descending FlightAware ADS-B
Fri 07:36:46 PM 32.9900 -116.2960 301° West 416 479 30,600 -3,106 Descending FlightAware ADS-B
Fri 07:37:31 PM 33.0350 -116.3820 302° West 413 475 28,400 -2,682 Descending FlightAware ADS-B
Fri 07:38:11 PM 33.0720 -116.4540 302° West 406 467 26,800 -2,550 Descending FlightAware ADS-B
Fri 07:38:51 PM 33.1130 -116.5330 302° West 398 458 25,000 -1,976 Descending FlightAware ADS-B
Fri 07:39:36 PM 33.1450 -116.6280 292° West 403 464 24,000 -706 Descending FlightAware ADS-B
Fri 07:40:16 PM 33.1560 -116.7150 279° West 403 464 24,000 -847 Level FlightAware ADS-B
Fri 07:41:01 PM 33.1680 -116.8080 279° West 392 451 22,800 -1,976 Descending FlightAware ADS-B
Fri 07:41:41 PM 33.1780 -116.8930 278° West 368 423 21,200 -2,211 Descending FlightAware ADS-B
Fri 07:42:36 PM 33.1890 -116.9870 278° West 355 409 19,300 -2,147 Descending FlightAware ADS-B
Fri 07:43:16 PM 33.1970 -117.0520 278° West 348 400 17,800 -2,824 Descending FlightAware ADS-B
Fri 07:44:01 PM 33.2110 -117.1620 279° West 339 390 15,300 -2,824 Descending FlightAware ADS-B
Fri 07:44:41 PM 33.2190 -117.2330 278° West 328 377 13,800 -2,188 Descending FlightAware ADS-B
Fri 07:45:26 PM 33.2290 -117.3120 279° West 330 380 12,200 -1,412 Descending FlightAware ADS-B
Fri 07:46:06 PM 33.2370 -117.3860 277° West 324 373 11,800 -1,271 Descending FlightAware ADS-B
Fri 07:46:51 PM 33.2440 -117.4670 276° West 326 375 10,400 -1,200 Descending FlightAware ADS-B
Fri 07:47:31 PM 33.2480 -117.5360 274° West 306 352 10,100 -225 Descending FlightAware ADS-B
Fri 07:48:11 PM 33.2520 -117.6050 274° West 304 350 10,100  Level FlightAware ADS-B
Fri 07:48:26 PM 33.2590 -117.6260 292° West 301 346 10,100  Level FlightAware ADS-B
Fri 07:49:06 PM 33.2940 -117.6750 311° West 294 338 10,100  Level FlightAware ADS-B
Fri 07:49:51 PM 33.3350 -117.7320 311° West 295 339 10,100  Level FlightAware ADS-B
Fri 07:50:31 PM 33.3700 -117.7800 311° West 296 341 10,100 -86 Level FlightAware ADS-B
Fri 07:51:01 PM 33.3980 -117.8180 311° West 294 338 10,000 -600 Descending FlightAware ADS-B
Fri 07:51:11 PM 33.4070 -117.8310 310° West 294 338 9,700 -1,650 Descending FlightAware ADS-B
Fri 07:51:41 PM 33.4340 -117.8670 312° West 292 336 8,900 -1,500 Descending FlightAware ADS-B
Fri 07:52:11 PM 33.4600 -117.9020 312° West 291 335 8,200 -873 Descending FlightAware ADS-B
Fri 07:52:36 PM 33.4830 -117.9320 313° West 288 331 8,100 -109 Descending FlightAware ADS-B
Fri 07:53:06 PM 33.5100 -117.9680 312° West 286 329 8,100 -400 Level FlightAware ADS-B
Fri 07:53:36 PM 33.5380 -118.0010 316° Northwest 289 333 7,700 -1,050 Descending FlightAware ADS-B
Fri 07:53:46 PM 33.5500 -118.0070 337° Northwest 286 329 7,400 -900 Descending FlightAware ADS-B
Fri 07:54:16 PM 33.5880 -118.0180 346° North 283 326 7,100 -300 Descending FlightAware ADS-B
Fri 07:54:46 PM 33.6270 -118.0260 350° North 280 322 7,100  Level FlightAware ADS-B
Fri 07:55:11 PM 33.6600 -118.0320 351° North 280 322 7,100  Level FlightAware ADS-B
Fri 07:55:41 PM 33.7000 -118.0390 352° North 282 325 7,100  Level FlightAware ADS-B
Fri 07:56:06 PM 33.7300 -118.0450 351° North 282 325 7,100  Level FlightAware ADS-B
Fri 07:56:36 PM 33.7690 -118.0520 352° North 281 323 7,100  Level FlightAware ADS-B
Fri 07:57:01 PM 33.8010 -118.0580 351° North 270 311 7,100  Level FlightAware ADS-B
Fri 07:57:31 PM 33.8370 -118.0710 343° North 253 291 7,100  Level FlightAware ADS-B
Fri 07:58:01 PM 33.8690 -118.0820 344° North 250 288 7,100 -218 Level FlightAware ADS-B
Fri 07:58:26 PM 33.8970 -118.0920 343° North 248 285 6,900 -1,091 Descending FlightAware ADS-B
Fri 07:58:56 PM 33.9300 -118.1040 343° North 242 278 6,100 -1,600 Descending FlightAware ADS-B
Fri 07:59:11 PM 33.9420 -118.1180 316° Northwest 234 269 5,700 -1,500 Descending FlightAware ADS-B
Fri 07:59:36 PM 33.9530 -118.1470 295° West 230 265 5,100 -1,560 Descending FlightAware ADS-B
Fri 08:00:01 PM 33.9590 -118.1760 284° West 219 252 4,400 -1,418 Descending FlightAware ADS-B
Fri 08:00:31 PM 33.9550 -118.2110 262° West 196 226 3,800 -1,418 Descending FlightAware ADS-B
Fri 08:00:56 PM 33.9520 -118.2380 262° West 189 217 3,100 -1,600 Descending FlightAware ADS-B
Fri 08:01:16 PM 33.9500 -118.2580 263° West 183 211 2,600 -764 Descending FlightAware ADS-B
Fri 08:01:51 PM 33.9460 -118.2900 261° West 179 206 2,400 -1,129 Descending FlightAware ADS-B
Fri 08:02:41 PM 33.9422 -118.3347 261° West 183 211 1,000 -1,179 Descending Los Angeles Center
Fri 08:03:43 PM 33.9392 -118.3783 265° West 151 174 200 -774 Descending Los Angeles Center
Fri 08:05:00 PM 33.9333 -118.4000 270° West  Level FlightAware Approximate
Fri 08:12:00 PM 33.9425 -118.4081 270° West  Level Estimated

Login

Don't have an account? Register now (free) for customized features, flight alerts, and more!